Time;durP1;ratioP1;P1;durP2;ratioP2;P2;SDS_P1;SDS_P2;PMS_P1;PMS_P2;Temp;Humidity;BMP_temperature;BMP_pressure;BME280_temperature;BME280_humidity;BME280_pressure;Samples;Min_cycle;Max_cycle;Signal;HPM_P1;HPM_P2
2021/11/28 00:00:48;;;;;;;44.07;14.97;;;;;;;;;;5068482;28;20269;-83
2021/11/28 00:03:16;;;;;;;34.40;16.13;;;;;;;;;;5066699;28;20266;-82
2021/11/28 00:05:50;;;;;;;26.77;13.80;;;;;;;;;;5069623;28;20493;-83
2021/11/28 00:08:35;;;;;;;34.50;14.60;;;;;;;;;;5071716;28;20208;-83
2021/11/28 00:11:08;;;;;;;36.40;16.30;;;;;;;;;;5068528;28;20471;-83
2021/11/28 00:13:53;;;;;;;39.87;16.20;;;;;;;;;;5071015;28;20206;-85
2021/11/28 00:16:21;;;;;;;42.60;17.43;;;;;;;;;;5074842;28;20480;-82
2021/11/28 00:18:49;;;;;;;48.20;21.83;;;;;;;;;;5069929;28;20470;-83
2021/11/28 00:21:17;;;;;;;37.37;17.70;;;;;;;;;;5071492;28;20249;-84
2021/11/28 00:23:46;;;;;;;36.43;16.37;;;;;;;;;;5076811;28;20650;-85
2021/11/28 00:26:14;;;;;;;36.23;16.03;;;;;;;;;;5073139;28;20261;-85
2021/11/28 00:28:43;;;;;;;32.97;14.67;;;;;;;;;;5077452;28;20561;-84
2021/11/28 00:31:10;;;;;;;38.50;15.90;;;;;;;;;;5075432;28;20701;-85
2021/11/28 00:33:37;;;;;;;31.10;14.73;;;;;;;;;;5073729;28;20459;-83
2021/11/28 00:36:05;;;;;;;28.83;14.27;;;;;;;;;;5073406;28;20206;-82
2021/11/28 00:38:34;;;;;;;33.50;14.90;;;;;;;;;;5073320;28;20468;-83
2021/11/28 00:41:01;;;;;;;40.20;16.00;;;;;;;;;;5073280;28;20227;-84
2021/11/28 00:43:28;;;;;;;34.50;15.70;;;;;;;;;;5070808;28;20544;-83
2021/11/28 00:45:57;;;;;;;36.17;15.63;;;;;;;;;;5068981;28;20979;-83
2021/11/28 00:48:29;;;;;;;36.17;15.60;;;;;;;;;;5070563;28;20202;-80
2021/11/28 00:51:21;;;;;;;35.93;14.50;;;;;;;;;;5078540;28;20469;-85
2021/11/28 00:53:50;;;;;;;36.93;15.03;;;;;;;;;;5069644;28;20453;-82
2021/11/28 00:56:19;;;;;;;33.33;15.47;;;;;;;;;;5070643;28;20229;-83
2021/11/28 00:58:47;;;;;;;35.13;14.53;;;;;;;;;;5067927;28;20233;-84
2021/11/28 01:01:18;;;;;;;33.13;15.17;;;;;;;;;;5070686;28;20237;-84
2021/11/28 01:03:45;;;;;;;35.67;15.67;;;;;;;;;;5067259;28;20811;-83
2021/11/28 01:06:12;;;;;;;32.17;14.07;;;;;;;;;;5071913;28;20230;-83
2021/11/28 01:08:42;;;;;;;39.03;16.03;;;;;;;;;;5071006;28;20198;-84
2021/11/28 01:11:11;;;;;;;38.37;15.83;;;;;;;;;;5070361;28;20234;-82
2021/11/28 01:13:38;;;;;;;29.43;13.70;;;;;;;;;;5066912;28;20206;-84
2021/11/28 01:16:06;;;;;;;30.10;15.17;;;;;;;;;;5070360;28;20289;-84
2021/11/28 01:18:33;;;;;;;34.10;15.30;;;;;;;;;;5072350;28;20266;-83
2021/11/28 01:21:00;;;;;;;35.50;15.03;;;;;;;;;;5067662;28;20490;-81
2021/11/28 01:23:27;;;;;;;30.37;15.03;;;;;;;;;;5070629;28;20210;-81
2021/11/28 01:25:55;;;;;;;32.70;14.87;;;;;;;;;;5067623;28;20484;-82
2021/11/28 01:28:23;;;;;;;33.50;15.03;;;;;;;;;;5064716;28;20237;-84
2021/11/28 01:30:51;;;;;;;35.37;15.20;;;;;;;;;;5071470;28;21027;-82
2021/11/28 01:33:19;;;;;;;34.73;14.63;;;;;;;;;;5070706;28;20214;-82
2021/11/28 01:35:46;;;;;;;32.57;14.50;;;;;;;;;;5074044;28;20294;-84
2021/11/28 01:38:18;;;;;;;29.13;14.27;;;;;;;;;;5071587;28;20636;-85
2021/11/28 01:40:46;;;;;;;31.57;15.07;;;;;;;;;;5069555;28;20223;-85
2021/11/28 01:43:16;;;;;;;35.77;15.50;;;;;;;;;;5073113;28;20455;-83
2021/11/28 01:45:49;;;;;;;33.27;15.23;;;;;;;;;;5072317;28;20219;-84
2021/11/28 01:48:17;;;;;;;32.40;15.40;;;;;;;;;;5069530;28;20537;-83
2021/11/28 01:50:46;;;;;;;33.20;14.97;;;;;;;;;;5069874;28;20286;-84
2021/11/28 01:53:16;;;;;;;32.03;14.03;;;;;;;;;;5068631;28;20194;-85
2021/11/28 01:55:44;;;;;;;30.67;14.27;;;;;;;;;;5073394;28;20586;-82
2021/11/28 01:58:11;;;;;;;36.43;14.97;;;;;;;;;;5070047;28;20693;-85
2021/11/28 02:00:40;;;;;;;36.63;15.57;;;;;;;;;;5071834;28;20230;-85
2021/11/28 02:03:11;;;;;;;31.20;14.13;;;;;;;;;;5065289;28;20599;-85
2021/11/28 02:05:40;;;;;;;37.60;14.73;;;;;;;;;;5067829;28;20477;-82
2021/11/28 02:08:08;;;;;;;31.30;14.10;;;;;;;;;;5070085;28;20294;-83
2021/11/28 02:10:35;;;;;;;30.17;14.63;;;;;;;;;;5070877;28;20316;-84
2021/11/28 02:13:03;;;;;;;33.50;14.83;;;;;;;;;;5070074;28;20210;-84
2021/11/28 02:15:30;;;;;;;31.07;14.40;;;;;;;;;;5066623;28;20260;-84
2021/11/28 02:17:58;;;;;;;30.27;14.57;;;;;;;;;;5070278;28;20290;-83
2021/11/28 02:20:28;;;;;;;32.20;14.87;;;;;;;;;;5068611;28;20290;-83
2021/11/28 02:22:57;;;;;;;31.27;13.80;;;;;;;;;;5061541;28;20294;-82
2021/11/28 02:25:25;;;;;;;30.27;14.50;;;;;;;;;;5064951;28;20248;-82
2021/11/28 02:27:53;;;;;;;26.93;14.13;;;;;;;;;;5070145;28;20665;-82
2021/11/28 02:30:20;;;;;;;31.77;13.60;;;;;;;;;;5064886;28;20560;-84
2021/11/28 02:32:48;;;;;;;33.17;14.30;;;;;;;;;;5063146;28;20297;-83
2021/11/28 02:35:15;;;;;;;33.93;15.00;;;;;;;;;;5063837;28;20294;-84
2021/11/28 02:37:43;;;;;;;35.30;14.33;;;;;;;;;;5067794;28;20208;-84
2021/11/28 02:40:13;;;;;;;38.93;14.47;;;;;;;;;;5065484;28;20408;-83
2021/11/28 02:42:42;;;;;;;34.97;14.10;;;;;;;;;;5067298;28;20303;-83
2021/11/28 02:45:11;;;;;;;29.97;13.37;;;;;;;;;;5070156;28;20213;-85
2021/11/28 02:47:38;;;;;;;29.13;13.87;;;;;;;;;;5067732;28;20578;-83
2021/11/28 02:50:06;;;;;;;29.30;13.27;;;;;;;;;;5069382;28;20249;-82
2021/11/28 02:52:34;;;;;;;30.33;14.00;;;;;;;;;;5067938;28;20682;-83
2021/11/28 02:55:01;;;;;;;30.43;14.53;;;;;;;;;;5070890;28;20236;-84
2021/11/28 02:57:30;;;;;;;31.53;14.17;;;;;;;;;;5065449;28;20750;-85
2021/11/28 02:59:57;;;;;;;31.37;15.23;;;;;;;;;;5070422;28;20321;-85
2021/11/28 03:02:24;;;;;;;33.37;14.47;;;;;;;;;;5066943;28;20298;-85
2021/11/28 03:04:51;;;;;;;30.30;14.13;;;;;;;;;;5069651;28;20281;-85
2021/11/28 03:07:20;;;;;;;28.30;14.23;;;;;;;;;;5067457;28;20232;-83
2021/11/28 03:09:48;;;;;;;34.20;14.73;;;;;;;;;;5068950;28;20227;-84
2021/11/28 03:12:16;;;;;;;34.47;15.20;;;;;;;;;;5067477;28;20209;-81
2021/11/28 03:14:47;;;;;;;27.67;13.97;;;;;;;;;;5069023;28;20317;-84
2021/11/28 03:17:15;;;;;;;33.53;14.20;;;;;;;;;;5070859;28;20205;-85
2021/11/28 03:19:47;;;;;;;29.23;14.03;;;;;;;;;;5071865;28;20305;-83
2021/11/28 03:22:15;;;;;;;35.47;14.47;;;;;;;;;;5072188;28;20198;-84
2021/11/28 03:24:42;;;;;;;36.80;14.70;;;;;;;;;;5068312;28;20237;-82
2021/11/28 03:27:09;;;;;;;29.77;14.33;;;;;;;;;;5070737;28;20222;-85
2021/11/28 03:29:37;;;;;;;32.73;14.40;;;;;;;;;;5072166;28;20329;-82
2021/11/28 03:32:05;;;;;;;33.57;15.53;;;;;;;;;;5068395;28;20225;-83
2021/11/28 03:34:33;;;;;;;28.73;14.80;;;;;;;;;;5069283;28;20210;-82
2021/11/28 03:37:05;;;;;;;31.70;13.73;;;;;;;;;;5069088;28;20232;-83
2021/11/28 03:39:32;;;;;;;35.87;14.07;;;;;;;;;;5069478;28;20198;-84
2021/11/28 03:42:00;;;;;;;33.77;13.80;;;;;;;;;;5069867;28;20269;-84
2021/11/28 03:44:29;;;;;;;29.07;13.77;;;;;;;;;;5070654;28;20198;-83
2021/11/28 03:46:57;;;;;;;30.30;14.07;;;;;;;;;;5070251;28;20217;-82
2021/11/28 03:49:26;;;;;;;31.20;13.93;;;;;;;;;;5067656;28;20319;-83
2021/11/28 03:51:54;;;;;;;32.73;14.03;;;;;;;;;;5067321;28;20202;-82
2021/11/28 03:54:21;;;;;;;33.47;14.37;;;;;;;;;;5067960;28;20214;-83
2021/11/28 03:56:49;;;;;;;30.47;14.17;;;;;;;;;;5070263;28;20661;-82
2021/11/28 03:59:16;;;;;;;32.23;14.20;;;;;;;;;;5064115;28;20270;-81
2021/11/28 04:01:47;;;;;;;31.73;14.07;;;;;;;;;;5065416;28;20701;-82
2021/11/28 04:04:16;;;;;;;29.77;13.90;;;;;;;;;;5068002;28;20206;-83
2021/11/28 04:06:50;;;;;;;28.53;14.03;;;;;;;;;;5064027;28;20231;-83
2021/11/28 04:09:17;;;;;;;26.63;13.20;;;;;;;;;;5067627;28;20654;-82
2021/11/28 04:11:46;;;;;;;28.70;14.30;;;;;;;;;;5067721;28;20648;-85
2021/11/28 04:14:16;;;;;;;35.07;13.77;;;;;;;;;;5070046;28;20244;-85
2021/11/28 04:16:46;;;;;;;30.63;13.17;;;;;;;;;;5067548;28;20741;-84
2021/11/28 04:19:18;;;;;;;30.40;14.37;;;;;;;;;;5069405;28;20325;-83
2021/11/28 04:21:46;;;;;;;28.03;13.70;;;;;;;;;;5070281;28;20256;-84
2021/11/28 04:24:14;;;;;;;30.43;14.57;;;;;;;;;;5070091;28;20298;-85
2021/11/28 04:26:42;;;;;;;27.77;13.37;;;;;;;;;;5071073;28;20229;-85
2021/11/28 04:29:10;;;;;;;26.97;13.73;;;;;;;;;;5073480;28;20224;-82
2021/11/28 04:31:37;;;;;;;31.47;13.87;;;;;;;;;;5068891;28;20222;-83
2021/11/28 04:34:06;;;;;;;29.30;13.03;;;;;;;;;;5071021;28;20209;-85
2021/11/28 04:36:34;;;;;;;30.83;14.60;;;;;;;;;;5067008;28;20199;-85
2021/11/28 04:39:02;;;;;;;30.37;14.07;;;;;;;;;;5063804;28;20671;-84
2021/11/28 04:41:31;;;;;;;31.93;13.97;;;;;;;;;;5067787;28;20224;-85
2021/11/28 04:43:58;;;;;;;33.43;13.87;;;;;;;;;;5066230;28;20986;-84
2021/11/28 04:46:26;;;;;;;29.63;13.80;;;;;;;;;;5070679;28;20301;-85
2021/11/28 04:48:53;;;;;;;34.80;14.33;;;;;;;;;;5070120;28;20214;-84
2021/11/28 04:51:20;;;;;;;38.30;14.17;;;;;;;;;;5068953;28;20248;-83
2021/11/28 04:53:47;;;;;;;25.83;12.33;;;;;;;;;;5068047;28;20214;-83
2021/11/28 04:56:18;;;;;;;31.07;13.80;;;;;;;;;;5068286;28;20215;-84
2021/11/28 04:58:46;;;;;;;28.83;13.53;;;;;;;;;;5070411;28;20245;-85
2021/11/28 05:01:14;;;;;;;30.37;12.90;;;;;;;;;;5067955;28;20256;-84
2021/11/28 05:03:42;;;;;;;27.80;13.83;;;;;;;;;;5070615;28;20259;-86
2021/11/28 05:06:10;;;;;;;28.70;12.53;;;;;;;;;;5074550;28;20218;-85
2021/11/28 05:08:40;;;;;;;30.50;13.50;;;;;;;;;;5071773;28;20662;-84
2021/11/28 05:11:07;;;;;;;25.97;12.77;;;;;;;;;;5069768;28;20226;-84
2021/11/28 05:13:35;;;;;;;25.00;12.33;;;;;;;;;;5075434;28;20294;-85
2021/11/28 05:16:07;;;;;;;34.93;13.93;;;;;;;;;;5075737;28;20709;-83
2021/11/28 05:18:37;;;;;;;30.70;14.17;;;;;;;;;;5070816;28;20217;-84
2021/11/28 05:21:05;;;;;;;29.87;13.30;;;;;;;;;;5069913;28;20223;-85
2021/11/28 05:23:35;;;;;;;30.73;13.73;;;;;;;;;;5073920;28;20236;-84
2021/11/28 05:26:02;;;;;;;32.57;13.10;;;;;;;;;;5075500;28;20202;-83
2021/11/28 05:28:29;;;;;;;28.53;13.60;;;;;;;;;;5072903;28;20240;-85
2021/11/28 05:30:58;;;;;;;26.73;12.57;;;;;;;;;;5075282;28;20757;-85
2021/11/28 05:33:27;;;;;;;32.37;13.80;;;;;;;;;;5076624;28;20285;-85
2021/11/28 05:35:54;;;;;;;30.80;13.10;;;;;;;;;;5072723;28;20228;-85
2021/11/28 05:38:21;;;;;;;24.87;12.50;;;;;;;;;;5071009;28;20203;-86
2021/11/28 05:40:49;;;;;;;24.70;12.87;;;;;;;;;;5074251;28;20290;-85
2021/11/28 05:43:16;;;;;;;28.87;13.10;;;;;;;;;;5075628;28;20234;-85
2021/11/28 05:45:43;;;;;;;28.53;13.00;;;;;;;;;;5072341;28;20237;-82
2021/11/28 05:48:12;;;;;;;29.83;13.70;;;;;;;;;;5071148;28;20286;-83
2021/11/28 05:50:39;;;;;;;28.87;13.00;;;;;;;;;;5072272;28;20290;-83
2021/11/28 05:53:07;;;;;;;27.47;11.97;;;;;;;;;;5074750;28;20302;-84
2021/11/28 05:55:34;;;;;;;34.07;13.50;;;;;;;;;;5071189;28;20725;-84
2021/11/28 05:58:01;;;;;;;28.60;13.60;;;;;;;;;;5071742;28;20225;-82
2021/11/28 06:00:37;;;;;;;28.30;12.43;;;;;;;;;;5073324;28;20932;-85
2021/11/28 06:03:08;;;;;;;30.13;13.50;;;;;;;;;;5073400;28;20563;-85
2021/11/28 06:05:37;;;;;;;28.63;12.80;;;;;;;;;;5076686;28;20225;-81
2021/11/28 06:08:05;;;;;;;29.67;14.13;;;;;;;;;;5069130;28;20933;-85
2021/11/28 06:10:32;;;;;;;32.67;12.97;;;;;;;;;;5070457;28;20536;-85
2021/11/28 06:12:59;;;;;;;28.50;13.23;;;;;;;;;;5069666;28;20273;-83
2021/11/28 06:15:27;;;;;;;29.37;13.47;;;;;;;;;;5070266;28;20199;-85
2021/11/28 06:17:54;;;;;;;29.20;13.63;;;;;;;;;;5073024;28;20230;-84
2021/11/28 06:20:21;;;;;;;33.80;13.53;;;;;;;;;;5071384;28;20219;-85
2021/11/28 06:22:52;;;;;;;25.67;12.67;;;;;;;;;;5071447;28;20305;-83
2021/11/28 06:25:19;;;;;;;29.37;12.57;;;;;;;;;;5069641;28;20199;-85
2021/11/28 06:27:47;;;;;;;26.37;12.07;;;;;;;;;;5071410;28;20584;-84
2021/11/28 06:30:14;;;;;;;31.53;13.53;;;;;;;;;;5074070;28;20652;-83
2021/11/28 06:32:41;;;;;;;31.03;12.67;;;;;;;;;;5070003;28;20253;-85
2021/11/28 06:35:09;;;;;;;28.03;12.60;;;;;;;;;;5074025;28;20270;-84
2021/11/28 06:37:37;;;;;;;30.03;12.73;;;;;;;;;;5067525;28;20234;-84
2021/11/28 06:40:07;;;;;;;32.00;14.20;;;;;;;;;;5074174;28;20744;-85
2021/11/28 06:42:34;;;;;;;28.43;13.30;;;;;;;;;;5068753;28;20229;-84
2021/11/28 06:45:01;;;;;;;39.97;13.80;;;;;;;;;;5076473;28;20265;-85
2021/11/28 06:47:29;;;;;;;28.47;13.07;;;;;;;;;;5073800;28;20218;-82
2021/11/28 06:49:56;;;;;;;34.93;12.83;;;;;;;;;;5070900;28;20879;-85
2021/11/28 06:52:25;;;;;;;28.30;12.53;;;;;;;;;;5072642;28;20233;-82
2021/11/28 06:54:52;;;;;;;26.90;13.00;;;;;;;;;;5072232;28;20206;-83
2021/11/28 06:57:23;;;;;;;29.23;14.30;;;;;;;;;;5073481;28;20252;-83
2021/11/28 06:59:50;;;;;;;31.67;12.70;;;;;;;;;;5054126;28;20241;-84
2021/11/28 07:02:18;;;;;;;26.47;12.90;;;;;;;;;;5073550;28;20206;-84
2021/11/28 07:04:45;;;;;;;34.30;13.87;;;;;;;;;;5074029;28;20241;-84
2021/11/28 07:07:12;;;;;;;31.70;13.50;;;;;;;;;;5071796;28;20283;-82
2021/11/28 07:09:40;;;;;;;33.07;13.60;;;;;;;;;;5075966;28;20292;-82
2021/11/28 07:12:08;;;;;;;29.90;13.20;;;;;;;;;;5082107;28;21774;-81
2021/11/28 07:14:37;;;;;;;25.23;12.23;;;;;;;;;;5072956;28;20330;-82
2021/11/28 07:17:05;;;;;;;29.33;12.73;;;;;;;;;;5069189;28;20370;-81
2021/11/28 07:19:32;;;;;;;29.70;13.03;;;;;;;;;;5069715;28;20686;-81
2021/11/28 07:22:01;;;;;;;25.43;13.10;;;;;;;;;;5067548;28;20621;-82
2021/11/28 07:24:28;;;;;;;31.57;12.93;;;;;;;;;;5067141;28;20242;-80
2021/11/28 07:26:57;;;;;;;34.07;12.97;;;;;;;;;;5068936;28;20233;-81
2021/11/28 07:29:24;;;;;;;27.57;13.00;;;;;;;;;;5069113;28;20230;-81
2021/11/28 07:31:53;;;;;;;30.07;14.43;;;;;;;;;;5069725;28;20289;-83
2021/11/28 07:34:20;;;;;;;32.20;13.67;;;;;;;;;;5068367;28;20214;-82
2021/11/28 07:36:47;;;;;;;32.97;12.97;;;;;;;;;;5068106;28;20588;-83
2021/11/28 07:39:14;;;;;;;29.93;12.00;;;;;;;;;;5064717;28;20213;-82
2021/11/28 07:41:42;;;;;;;31.93;13.00;;;;;;;;;;5065493;28;20248;-85
2021/11/28 07:44:09;;;;;;;30.97;13.13;;;;;;;;;;5070860;28;20241;-82
2021/11/28 07:46:37;;;;;;;30.83;13.03;;;;;;;;;;5068114;28;20230;-82
2021/11/28 07:49:06;;;;;;;29.10;13.57;;;;;;;;;;5071179;28;20229;-82
2021/11/28 07:51:34;;;;;;;31.40;13.00;;;;;;;;;;5071045;28;20309;-83
2021/11/28 07:54:02;;;;;;;25.53;12.53;;;;;;;;;;5071493;28;20202;-81
2021/11/28 07:56:32;;;;;;;29.73;13.60;;;;;;;;;;5070148;28;20339;-82
2021/11/28 07:58:59;;;;;;;30.00;14.20;;;;;;;;;;5070327;28;20206;-82
2021/11/28 08:01:27;;;;;;;27.10;13.13;;;;;;;;;;5069237;28;20238;-83
2021/11/28 08:03:55;;;;;;;34.00;14.23;;;;;;;;;;5071933;28;20309;-82
2021/11/28 08:06:24;;;;;;;33.53;13.60;;;;;;;;;;5075048;28;20225;-82
2021/11/28 08:08:51;;;;;;;33.60;13.97;;;;;;;;;;5070323;28;20225;-81
2021/11/28 08:11:19;;;;;;;28.90;13.30;;;;;;;;;;5072126;28;20694;-84
2021/11/28 08:13:53;;;;;;;35.70;13.80;;;;;;;;;;5068527;28;20238;-82
2021/11/28 08:16:20;;;;;;;25.93;12.77;;;;;;;;;;5072864;28;20209;-82
2021/11/28 08:18:47;;;;;;;35.13;13.60;;;;;;;;;;5072056;28;20240;-82
2021/11/28 08:21:15;;;;;;;25.93;12.57;;;;;;;;;;5074746;28;20240;-83
2021/11/28 08:23:43;;;;;;;29.67;13.03;;;;;;;;;;5071867;28;20242;-82
2021/11/28 08:26:12;;;;;;;32.97;13.27;;;;;;;;;;5070736;28;20285;-82
2021/11/28 08:28:44;;;;;;;26.17;13.10;;;;;;;;;;5068278;28;20214;-83
2021/11/28 08:31:13;;;;;;;32.03;14.60;;;;;;;;;;5073904;28;20227;-85
2021/11/28 08:33:40;;;;;;;33.23;14.73;;;;;;;;;;5083986;28;20190;-80
2021/11/28 08:36:08;;;;;;;41.83;16.50;;;;;;;;;;5092803;28;20204;-79
2021/11/28 08:38:42;;;;;;;34.60;15.83;;;;;;;;;;5094391;28;20210;-81
2021/11/28 08:41:10;;;;;;;37.97;14.73;;;;;;;;;;5076902;28;20298;-82
2021/11/28 08:43:38;;;;;;;33.97;15.00;;;;;;;;;;5076398;28;20210;-85
2021/11/28 08:46:06;;;;;;;33.90;14.63;;;;;;;;;;5076540;28;20765;-84
2021/11/28 08:48:34;;;;;;;31.73;14.07;;;;;;;;;;5075021;28;20264;-84
2021/11/28 08:51:03;;;;;;;34.93;15.07;;;;;;;;;;5073339;28;20252;-85
2021/11/28 08:53:30;;;;;;;34.67;16.63;;;;;;;;;;5079327;28;20268;-85
2021/11/28 08:55:58;;;;;;;36.60;17.93;;;;;;;;;;5078434;28;20220;-85
2021/11/28 08:58:26;;;;;;;35.60;17.63;;;;;;;;;;5075328;28;20862;-84
2021/11/28 09:00:56;;;;;;;38.67;16.50;;;;;;;;;;5076905;28;20238;-84
2021/11/28 09:03:24;;;;;;;31.97;13.93;;;;;;;;;;5075673;28;20777;-82
2021/11/28 09:05:51;;;;;;;35.93;14.07;;;;;;;;;;5076338;28;20238;-84
2021/11/28 09:08:18;;;;;;;31.73;15.47;;;;;;;;;;5073820;28;20222;-83
2021/11/28 09:10:46;;;;;;;34.60;14.13;;;;;;;;;;5075115;28;20218;-82
2021/11/28 09:13:14;;;;;;;28.87;13.03;;;;;;;;;;5067382;28;20210;-83
2021/11/28 09:15:42;;;;;;;28.93;12.67;;;;;;;;;;5071879;28;20202;-82
2021/11/28 09:18:13;;;;;;;34.03;14.33;;;;;;;;;;5073016;28;20237;-85
2021/11/28 09:20:44;;;;;;;33.73;14.47;;;;;;;;;;5076468;28;20697;-84
2021/11/28 09:26:01;;;;;;;34.60;13.03;;;;;;;;;;5072296;28;20225;-84
2021/11/28 09:28:29;;;;;;;30.10;12.90;;;;;;;;;;5070051;28;20226;-84
2021/11/28 09:30:58;;;;;;;28.27;11.53;;;;;;;;;;5070496;28;20787;-82
2021/11/28 09:33:25;;;;;;;30.07;11.73;;;;;;;;;;5075008;28;20233;-83
2021/11/28 09:35:52;;;;;;;26.43;11.87;;;;;;;;;;5074877;28;20210;-84
2021/11/28 09:38:20;;;;;;;28.13;11.17;;;;;;;;;;5074739;28;20223;-81
2021/11/28 09:40:52;;;;;;;27.20;11.53;;;;;;;;;;5072563;28;20222;-83
2021/11/28 09:43:20;;;;;;;34.87;12.23;;;;;;;;;;5071137;28;20228;-84
2021/11/28 09:45:47;;;;;;;23.67;10.77;;;;;;;;;;5070412;28;20734;-82
2021/11/28 09:48:16;;;;;;;25.53;10.83;;;;;;;;;;5073449;28;20288;-81
2021/11/28 09:50:44;;;;;;;106.57;48.60;;;;;;;;;;5071978;28;20290;-84
2021/11/28 09:53:12;;;;;;;39.27;18.77;;;;;;;;;;5074369;28;20295;-83
2021/11/28 09:55:41;;;;;;;37.07;16.83;;;;;;;;;;5071143;28;21028;-81
2021/11/28 09:58:09;;;;;;;25.40;11.87;;;;;;;;;;5066357;28;20502;-82
2021/11/28 10:00:37;;;;;;;25.13;11.77;;;;;;;;;;5066110;28;20703;-82
2021/11/28 10:03:04;;;;;;;24.80;11.13;;;;;;;;;;5055859;28;20202;-82
2021/11/28 10:05:33;;;;;;;22.10;10.40;;;;;;;;;;5069482;28;20268;-82
2021/11/28 10:08:00;;;;;;;24.37;9.83;;;;;;;;;;5071193;28;20238;-82
2021/11/28 10:10:27;;;;;;;21.93;10.10;;;;;;;;;;5076221;28;20907;-85
2021/11/28 10:12:56;;;;;;;21.90;10.53;;;;;;;;;;5057504;28;20210;-83
2021/11/28 10:15:25;;;;;;;21.40;8.90;;;;;;;;;;5084811;28;20703;-81
2021/11/28 10:17:52;;;;;;;16.93;8.03;;;;;;;;;;5088664;28;20547;-79
2021/11/28 10:20:21;;;;;;;15.70;7.90;;;;;;;;;;5085223;28;20222;-84
2021/11/28 10:22:51;;;;;;;18.00;8.23;;;;;;;;;;5068972;28;20241;-83
2021/11/28 10:25:26;;;;;;;19.87;8.33;;;;;;;;;;5073345;28;20284;-83
2021/11/28 10:27:54;;;;;;;17.90;7.70;;;;;;;;;;5069727;28;20226;-84
2021/11/28 10:30:33;;;;;;;22.63;8.77;;;;;;;;;;5071308;28;20222;-84
2021/11/28 10:33:05;;;;;;;19.63;9.57;;;;;;;;;;5068908;28;20221;-83
2021/11/28 10:35:32;;;;;;;18.67;9.20;;;;;;;;;;5074998;28;20281;-83
2021/11/28 10:38:11;;;;;;;19.93;9.30;;;;;;;;;;5067814;28;20234;-83
2021/11/28 10:40:44;;;;;;;17.40;8.13;;;;;;;;;;5071503;28;20273;-85
2021/11/28 10:43:12;;;;;;;16.63;8.13;;;;;;;;;;5071363;28;20202;-84
2021/11/28 10:45:47;;;;;;;18.03;8.33;;;;;;;;;;5073398;28;20270;-85
2021/11/28 10:48:14;;;;;;;16.37;8.17;;;;;;;;;;5071136;28;20310;-83
2021/11/28 10:50:43;;;;;;;19.43;9.00;;;;;;;;;;5070545;28;20586;-84
2021/11/28 10:53:15;;;;;;;20.00;8.70;;;;;;;;;;5065529;28;20223;-82
2021/11/28 10:55:43;;;;;;;21.53;10.63;;;;;;;;;;5070806;28;20203;-83
2021/11/28 10:58:11;;;;;;;21.10;10.50;;;;;;;;;;5070015;28;20202;-83
2021/11/28 11:00:40;;;;;;;18.87;8.03;;;;;;;;;;5074683;28;20289;-82
2021/11/28 11:03:20;;;;;;;16.23;8.43;;;;;;;;;;5066074;28;20202;-84
2021/11/28 11:05:51;;;;;;;17.53;7.87;;;;;;;;;;5074284;28;20302;-83
2021/11/28 11:08:19;;;;;;;15.53;7.53;;;;;;;;;;5072130;28;20262;-83
2021/11/28 11:10:47;;;;;;;16.43;7.77;;;;;;;;;;5072049;28;20271;-85
2021/11/28 11:13:15;;;;;;;14.97;8.00;;;;;;;;;;5069120;28;20205;-83
2021/11/28 11:15:44;;;;;;;17.87;8.10;;;;;;;;;;5069665;28;20701;-83
2021/11/28 11:18:12;;;;;;;17.80;8.57;;;;;;;;;;5073602;28;20202;-83
2021/11/28 11:20:41;;;;;;;15.83;6.70;;;;;;;;;;5074579;28;20233;-84
2021/11/28 11:23:23;;;;;;;13.97;7.77;;;;;;;;;;5071645;28;20202;-83
2021/11/28 11:25:51;;;;;;;13.93;7.60;;;;;;;;;;5074744;28;20207;-85
2021/11/28 11:28:19;;;;;;;12.80;7.00;;;;;;;;;;5071926;28;20764;-82
2021/11/28 11:30:46;;;;;;;14.10;7.20;;;;;;;;;;5067699;28;20645;-84
2021/11/28 11:33:14;;;;;;;12.30;6.27;;;;;;;;;;5073496;28;20209;-83
2021/11/28 11:38:48;;;;;;;15.20;7.07;;;;;;;;;;5068280;28;20194;-85
2021/11/28 11:41:17;;;;;;;13.57;6.77;;;;;;;;;;5072135;28;20225;-83
2021/11/28 11:43:44;;;;;;;13.77;7.37;;;;;;;;;;5070920;28;20233;-83
2021/11/28 11:46:11;;;;;;;18.03;8.47;;;;;;;;;;5069633;28;20214;-85
2021/11/28 11:48:39;;;;;;;15.03;7.90;;;;;;;;;;5071126;28;20253;-85
2021/11/28 11:51:09;;;;;;;12.93;6.67;;;;;;;;;;5070227;28;20269;-85
2021/11/28 11:53:36;;;;;;;13.57;7.43;;;;;;;;;;5068763;28;20206;-85
2021/11/28 11:56:10;;;;;;;13.97;6.83;;;;;;;;;;5085661;28;20206;-80
2021/11/28 11:58:41;;;;;;;14.67;6.47;;;;;;;;;;5091295;28;20191;-81
2021/11/28 12:01:11;;;;;;;13.10;7.13;;;;;;;;;;5084398;28;20234;-84
2021/11/28 12:03:50;;;;;;;12.10;6.10;;;;;;;;;;5067638;28;20208;-84
2021/11/28 12:06:17;;;;;;;10.50;5.43;;;;;;;;;;5065016;28;20206;-82
2021/11/28 12:08:51;;;;;;;12.67;5.90;;;;;;;;;;5068792;28;20271;-82
2021/11/28 12:11:22;;;;;;;12.87;6.30;;;;;;;;;;5067785;28;20724;-82
2021/11/28 12:13:58;;;;;;;11.67;5.30;;;;;;;;;;5070674;28;20233;-83
2021/11/28 12:16:27;;;;;;;10.60;5.27;;;;;;;;;;5073296;28;20285;-83
2021/11/28 12:18:55;;;;;;;9.27;4.93;;;;;;;;;;5072010;28;20449;-83
2021/11/28 12:21:23;;;;;;;10.37;5.23;;;;;;;;;;5074656;28;20225;-84
2021/11/28 12:24:12;;;;;;;12.80;5.73;;;;;;;;;;5075072;28;20210;-83
2021/11/28 12:26:46;;;;;;;8.67;4.67;;;;;;;;;;5071352;28;20241;-84
2021/11/28 12:29:46;;;;;;;16.53;6.60;;;;;;;;;;5068557;28;20233;-85
2021/11/28 12:32:23;;;;;;;12.53;5.87;;;;;;;;;;4987819;28;20285;-84
2021/11/28 12:34:54;;;;;;;11.70;4.90;;;;;;;;;;4990833;28;20546;-85
2021/11/28 12:37:26;;;;;;;10.47;5.17;;;;;;;;;;5031948;28;20229;-84
2021/11/28 12:39:54;;;;;;;10.83;5.57;;;;;;;;;;5070091;28;20252;-84
2021/11/28 12:42:21;;;;;;;15.00;5.30;;;;;;;;;;5067986;28;20764;-85
2021/11/28 12:45:03;;;;;;;9.43;4.90;;;;;;;;;;5069984;28;20198;-83
2021/11/28 12:47:33;;;;;;;9.37;4.77;;;;;;;;;;5070930;28;20206;-84
2021/11/28 12:50:01;;;;;;;10.47;5.07;;;;;;;;;;5005835;28;20971;-83
2021/11/28 12:52:33;;;;;;;10.17;4.70;;;;;;;;;;5053235;28;20218;-85
2021/11/28 12:55:13;;;;;;;12.97;5.40;;;;;;;;;;5052878;28;20261;-83
2021/11/28 12:57:41;;;;;;;13.67;6.47;;;;;;;;;;5052845;28;20203;-86
2021/11/28 13:00:18;;;;;;;10.07;5.13;;;;;;;;;;5053912;28;20714;-84
2021/11/28 13:02:47;;;;;;;10.27;4.90;;;;;;;;;;5051060;28;20223;-84
2021/11/28 13:05:35;;;;;;;9.17;5.10;;;;;;;;;;5055916;28;20241;-83
2021/11/28 13:08:21;;;;;;;12.27;5.37;;;;;;;;;;5053430;28;20271;-85
2021/11/28 13:10:49;;;;;;;9.80;5.03;;;;;;;;;;5051172;28;20648;-85
2021/11/28 13:13:18;;;;;;;11.27;5.30;;;;;;;;;;5046598;28;20325;-83
2021/11/28 13:15:47;;;;;;;8.40;4.17;;;;;;;;;;5055440;28;20290;-83
2021/11/28 13:18:17;;;;;;;11.40;4.40;;;;;;;;;;5049458;28;20250;-84
2021/11/28 13:20:45;;;;;;;12.80;4.70;;;;;;;;;;5053600;28;20314;-84
2021/11/28 13:23:13;;;;;;;9.37;4.33;;;;;;;;;;5049312;28;20264;-84
2021/11/28 13:25:44;;;;;;;8.57;3.57;;;;;;;;;;5049108;28;20210;-84
2021/11/28 13:28:13;;;;;;;8.87;4.20;;;;;;;;;;5052916;28;20266;-85
2021/11/28 13:30:41;;;;;;;7.47;4.50;;;;;;;;;;5051802;28;20682;-85
2021/11/28 13:33:09;;;;;;;8.70;4.70;;;;;;;;;;5054572;28;20203;-85
2021/11/28 13:35:38;;;;;;;10.00;5.33;;;;;;;;;;5057493;28;20229;-84
2021/11/28 13:38:12;;;;;;;14.07;5.97;;;;;;;;;;5069592;28;20198;-84
2021/11/28 13:40:39;;;;;;;9.73;4.40;;;;;;;;;;5071047;28;20225;-83
2021/11/28 13:43:06;;;;;;;9.43;4.63;;;;;;;;;;5055031;28;20635;-85
2021/11/28 13:45:34;;;;;;;8.93;4.00;;;;;;;;;;5050571;28;20207;-83
2021/11/28 13:48:01;;;;;;;6.13;3.80;;;;;;;;;;5053001;28;20205;-84
2021/11/28 13:50:29;;;;;;;7.90;4.10;;;;;;;;;;5051090;28;20246;-84
2021/11/28 13:53:11;;;;;;;7.47;3.77;;;;;;;;;;5049422;28;20643;-84
2021/11/28 13:55:52;;;;;;;8.23;3.83;;;;;;;;;;5027778;28;20200;-84
2021/11/28 13:58:23;;;;;;;6.07;3.67;;;;;;;;;;5029616;28;20353;-85
2021/11/28 14:00:52;;;;;;;8.77;4.37;;;;;;;;;;5032671;28;20254;-85
2021/11/28 14:03:20;;;;;;;6.97;3.50;;;;;;;;;;5031742;28;20290;-87
2021/11/28 14:05:47;;;;;;;12.10;4.80;;;;;;;;;;5032237;28;20235;-85
2021/11/28 14:08:14;;;;;;;10.80;4.90;;;;;;;;;;5032358;28;20208;-85
2021/11/28 14:10:45;;;;;;;9.73;4.77;;;;;;;;;;5027119;28;20228;-84
2021/11/28 14:13:14;;;;;;;7.50;4.43;;;;;;;;;;5031294;28;20628;-83
2021/11/28 14:15:41;;;;;;;8.10;4.30;;;;;;;;;;5038432;28;20224;-84
2021/11/28 14:18:09;;;;;;;7.80;4.43;;;;;;;;;;5031661;28;20231;-83
2021/11/28 14:20:37;;;;;;;8.23;4.50;;;;;;;;;;5037753;28;20335;-85
2021/11/28 14:23:05;;;;;;;7.73;4.70;;;;;;;;;;5036105;28;20218;-84
2021/11/28 14:25:35;;;;;;;9.53;4.67;;;;;;;;;;5038699;28;20211;-83
2021/11/28 14:28:18;;;;;;;9.43;5.37;;;;;;;;;;5039874;28;20262;-83
2021/11/28 14:30:55;;;;;;;12.73;6.20;;;;;;;;;;5035305;28;20322;-84
2021/11/28 14:33:23;;;;;;;13.37;4.90;;;;;;;;;;5039504;28;20735;-84
2021/11/28 14:35:51;;;;;;;16.07;8.07;;;;;;;;;;5036005;28;20617;-83
2021/11/28 14:38:19;;;;;;;13.43;6.40;;;;;;;;;;5036318;28;20211;-84